sensor_id;sensor_type;location;lat;lon;timestamp;pressure;altitude;pressure_sealevel;temperature;humidity
75585;BME280;64162;53.508;10.476;2023-12-07T00:00:26;101257.22;;;4.25;74.39
75585;BME280;64162;53.508;10.476;2023-12-07T00:02:53;101265.72;;;4.25;74.18
75585;BME280;64162;53.508;10.476;2023-12-07T00:05:19;101263.56;;;4.07;74.54
75585;BME280;64162;53.508;10.476;2023-12-07T00:07:46;101257.00;;;4.90;72.47
75585;BME280;64162;53.508;10.476;2023-12-07T00:10:12;101265.91;;;4.60;72.60
75585;BME280;64162;53.508;10.476;2023-12-07T00:12:39;101278.34;;;4.41;73.80
75585;BME280;64162;53.508;10.476;2023-12-07T00:15:06;101281.22;;;4.37;74.33
75585;BME280;64162;53.508;10.476;2023-12-07T00:17:33;101282.81;;;4.00;74.72
75585;BME280;64162;53.508;10.476;2023-12-07T00:19:59;101279.56;;;4.10;74.96
75585;BME280;64162;53.508;10.476;2023-12-07T00:22:26;101277.41;;;4.17;73.76
75585;BME280;64162;53.508;10.476;2023-12-07T00:24:54;101284.28;;;4.16;74.62
75585;BME280;64162;53.508;10.476;2023-12-07T00:27:21;101275.63;;;4.43;73.62
75585;BME280;64162;53.508;10.476;2023-12-07T00:29:48;101265.34;;;4.81;72.25
75585;BME280;64162;53.508;10.476;2023-12-07T00:32:14;101294.94;;;4.61;72.93
75585;BME280;64162;53.508;10.476;2023-12-07T00:34:41;101276.75;;;4.77;71.81
75585;BME280;64162;53.508;10.476;2023-12-07T00:37:07;101283.63;;;4.63;72.45
75585;BME280;64162;53.508;10.476;2023-12-07T00:39:34;101293.59;;;4.55;73.17
75585;BME280;64162;53.508;10.476;2023-12-07T00:42:01;101279.91;;;4.93;72.43
75585;BME280;64162;53.508;10.476;2023-12-07T00:44:27;101287.13;;;4.50;73.56
75585;BME280;64162;53.508;10.476;2023-12-07T00:46:54;101302.13;;;4.56;72.47
75585;BME280;64162;53.508;10.476;2023-12-07T00:49:20;101304.59;;;4.57;73.08
75585;BME280;64162;53.508;10.476;2023-12-07T00:51:47;101311.63;;;4.79;71.74
75585;BME280;64162;53.508;10.476;2023-12-07T00:54:14;101300.47;;;4.67;72.94
75585;BME280;64162;53.508;10.476;2023-12-07T00:56:40;101320.38;;;4.26;73.80
75585;BME280;64162;53.508;10.476;2023-12-07T00:59:07;101315.44;;;4.61;73.31
75585;BME280;64162;53.508;10.476;2023-12-07T01:01:34;101312.28;;;4.32;74.51
75585;BME280;64162;53.508;10.476;2023-12-07T01:04:00;101316.66;;;4.43;73.76
75585;BME280;64162;53.508;10.476;2023-12-07T01:06:27;101325.31;;;4.42;73.28
75585;BME280;64162;53.508;10.476;2023-12-07T01:08:54;101318.81;;;4.23;74.84
75585;BME280;64162;53.508;10.476;2023-12-07T01:11:21;101312.47;;;3.64;76.59
75585;BME280;64162;53.508;10.476;2023-12-07T01:13:48;101330.09;;;4.21;74.88
75585;BME280;64162;53.508;10.476;2023-12-07T01:16:14;101329.91;;;4.37;73.75
75585;BME280;64162;53.508;10.476;2023-12-07T01:18:41;101323.44;;;4.44;74.14
75585;BME280;64162;53.508;10.476;2023-12-07T01:21:07;101328.16;;;4.50;73.41
75585;BME280;64162;53.508;10.476;2023-12-07T01:23:34;101336.47;;;4.66;72.90
75585;BME280;64162;53.508;10.476;2023-12-07T01:26:01;101339.63;;;4.69;73.04
75585;BME280;64162;53.508;10.476;2023-12-07T01:28:29;101351.97;;;4.52;73.87
75585;BME280;64162;53.508;10.476;2023-12-07T01:30:55;101345.81;;;4.54;73.51
75585;BME280;64162;53.508;10.476;2023-12-07T01:33:22;101339.03;;;4.41;73.51
75585;BME280;64162;53.508;10.476;2023-12-07T01:35:49;101362.22;;;4.39;73.19
75585;BME280;64162;53.508;10.476;2023-12-07T01:38:16;101348.38;;;4.42;73.96
75585;BME280;64162;53.508;10.476;2023-12-07T01:40:42;101359.75;;;4.25;74.27
75585;BME280;64162;53.508;10.476;2023-12-07T01:43:10;101368.78;;;4.68;73.41
75585;BME280;64162;53.508;10.476;2023-12-07T01:45:36;101360.13;;;4.06;74.91
75585;BME280;64162;53.508;10.476;2023-12-07T01:48:03;101377.50;;;4.79;72.76
75585;BME280;64162;53.508;10.476;2023-12-07T01:50:30;101372.50;;;4.52;73.05
75585;BME280;64162;53.508;10.476;2023-12-07T01:53:01;101375.34;;;4.47;73.66
75585;BME280;64162;53.508;10.476;2023-12-07T01:55:30;101356.56;;;4.59;73.33
75585;BME280;64162;53.508;10.476;2023-12-07T01:57:58;101352.97;;;4.49;73.01
75585;BME280;64162;53.508;10.476;2023-12-07T02:00:26;101361.38;;;4.26;73.36
75585;BME280;64162;53.508;10.476;2023-12-07T02:02:53;101371.63;;;4.26;75.01
75585;BME280;64162;53.508;10.476;2023-12-07T02:05:20;101370.16;;;3.97;74.70
75585;BME280;64162;53.508;10.476;2023-12-07T02:07:48;101372.84;;;4.20;74.32
75585;BME280;64162;53.508;10.476;2023-12-07T02:10:15;101381.38;;;4.21;74.44
75585;BME280;64162;53.508;10.476;2023-12-07T02:12:42;101378.63;;;4.49;73.61
75585;BME280;64162;53.508;10.476;2023-12-07T02:15:09;101384.50;;;4.51;72.97
75585;BME280;64162;53.508;10.476;2023-12-07T02:20:12;101372.69;;;4.36;74.06
75585;BME280;64162;53.508;10.476;2023-12-07T02:22:52;101362.69;;;4.06;74.35
75585;BME280;64162;53.508;10.476;2023-12-07T02:25:24;101371.63;;;4.26;74.62
75585;BME280;64162;53.508;10.476;2023-12-07T02:27:50;101385.50;;;4.36;74.13
75585;BME280;64162;53.508;10.476;2023-12-07T02:30:17;101379.28;;;4.01;75.77
75585;BME280;64162;53.508;10.476;2023-12-07T02:32:45;101376.72;;;4.13;74.80
75585;BME280;64162;53.508;10.476;2023-12-07T02:35:12;101372.03;;;4.20;74.42
75585;BME280;64162;53.508;10.476;2023-12-07T02:37:45;101373.81;;;3.93;75.08
75585;BME280;64162;53.508;10.476;2023-12-07T02:40:17;101378.41;;;3.87;75.17
75585;BME280;64162;53.508;10.476;2023-12-07T02:42:44;101386.41;;;4.22;74.68
75585;BME280;64162;53.508;10.476;2023-12-07T02:45:11;101387.44;;;4.45;73.99
75585;BME280;64162;53.508;10.476;2023-12-07T02:47:39;101382.75;;;4.00;74.33
75585;BME280;64162;53.508;10.476;2023-12-07T02:50:07;101375.94;;;4.38;74.26
75585;BME280;64162;53.508;10.476;2023-12-07T02:52:34;101380.97;;;3.87;75.97
75585;BME280;64162;53.508;10.476;2023-12-07T02:55:01;101382.28;;;3.80;75.68
75585;BME280;64162;53.508;10.476;2023-12-07T02:57:29;101386.59;;;4.19;75.27
75585;BME280;64162;53.508;10.476;2023-12-07T02:59:56;101387.75;;;4.41;73.98
75585;BME280;64162;53.508;10.476;2023-12-07T03:02:22;101390.63;;;4.36;74.14
75585;BME280;64162;53.508;10.476;2023-12-07T03:04:49;101385.53;;;4.09;74.31
75585;BME280;64162;53.508;10.476;2023-12-07T03:07:16;101383.72;;;4.24;73.70
75585;BME280;64162;53.508;10.476;2023-12-07T03:09:42;101399.03;;;3.99;74.42
75585;BME280;64162;53.508;10.476;2023-12-07T03:12:09;101402.88;;;4.06;74.72
75585;BME280;64162;53.508;10.476;2023-12-07T03:14:35;101383.00;;;3.82;75.73
75585;BME280;64162;53.508;10.476;2023-12-07T03:17:02;101405.47;;;4.31;74.46
75585;BME280;64162;53.508;10.476;2023-12-07T03:19:28;101396.66;;;4.35;74.16
75585;BME280;64162;53.508;10.476;2023-12-07T03:21:55;101399.69;;;4.15;74.48
75585;BME280;64162;53.508;10.476;2023-12-07T03:24:22;101401.97;;;3.80;75.37
75585;BME280;64162;53.508;10.476;2023-12-07T03:26:48;101409.72;;;4.05;75.06
75585;BME280;64162;53.508;10.476;2023-12-07T03:29:15;101405.09;;;4.37;74.30
75585;BME280;64162;53.508;10.476;2023-12-07T03:31:41;101396.88;;;4.45;73.38
75585;BME280;64162;53.508;10.476;2023-12-07T03:34:08;101395.19;;;4.18;74.64
75585;BME280;64162;53.508;10.476;2023-12-07T03:36:35;101406.84;;;4.49;73.60
75585;BME280;64162;53.508;10.476;2023-12-07T03:39:01;101389.25;;;4.18;74.20
75585;BME280;64162;53.508;10.476;2023-12-07T03:41:29;101403.00;;;4.29;74.25
75585;BME280;64162;53.508;10.476;2023-12-07T03:43:56;101401.41;;;4.41;73.35
75585;BME280;64162;53.508;10.476;2023-12-07T03:46:22;101405.28;;;4.34;73.23
75585;BME280;64162;53.508;10.476;2023-12-07T03:48:49;101404.00;;;4.02;74.16
75585;BME280;64162;53.508;10.476;2023-12-07T03:51:15;101403.91;;;4.16;74.26
75585;BME280;64162;53.508;10.476;2023-12-07T03:53:43;101400.31;;;4.18;74.64
75585;BME280;64162;53.508;10.476;2023-12-07T03:56:09;101419.22;;;4.30;73.89
75585;BME280;64162;53.508;10.476;2023-12-07T03:58:36;101403.75;;;4.31;74.02
75585;BME280;64162;53.508;10.476;2023-12-07T04:01:03;101419.22;;;4.30;73.56
75585;BME280;64162;53.508;10.476;2023-12-07T04:03:30;101411.91;;;4.24;74.54
75585;BME280;64162;53.508;10.476;2023-12-07T04:05:56;101411.59;;;4.16;75.46
75585;BME280;64162;53.508;10.476;2023-12-07T04:08:23;101397.97;;;4.28;73.87
75585;BME280;64162;53.508;10.476;2023-12-07T04:10:49;101415.75;;;4.31;74.34
75585;BME280;64162;53.508;10.476;2023-12-07T04:13:16;101421.44;;;4.61;73.43
75585;BME280;64162;53.508;10.476;2023-12-07T04:15:43;101418.16;;;4.20;74.06
75585;BME280;64162;53.508;10.476;2023-12-07T04:18:09;101426.59;;;4.35;73.68
75585;BME280;64162;53.508;10.476;2023-12-07T04:20:36;101413.91;;;4.46;73.17
75585;BME280;64162;53.508;10.476;2023-12-07T04:23:02;101418.94;;;4.60;72.90
75585;BME280;64162;53.508;10.476;2023-12-07T04:25:29;101424.13;;;4.33;73.88
75585;BME280;64162;53.508;10.476;2023-12-07T04:27:55;101419.69;;;4.62;72.94
75585;BME280;64162;53.508;10.476;2023-12-07T04:30:22;101431.19;;;4.82;72.35
75585;BME280;64162;53.508;10.476;2023-12-07T04:32:49;101427.88;;;4.42;73.51
75585;BME280;64162;53.508;10.476;2023-12-07T04:35:15;101413.91;;;4.46;73.35
75585;BME280;64162;53.508;10.476;2023-12-07T04:37:42;101428.47;;;4.58;72.59
75585;BME280;64162;53.508;10.476;2023-12-07T04:40:09;101417.50;;;4.04;73.81
75585;BME280;64162;53.508;10.476;2023-12-07T04:42:36;101411.03;;;4.50;73.53
75585;BME280;64162;53.508;10.476;2023-12-07T04:45:03;101426.31;;;4.00;75.58
75585;BME280;64162;53.508;10.476;2023-12-07T04:47:31;101426.06;;;3.90;75.23
75585;BME280;64162;53.508;10.476;2023-12-07T04:49:58;101422.69;;;4.29;74.27
75585;BME280;64162;53.508;10.476;2023-12-07T04:52:25;101412.03;;;4.22;74.38
75585;BME280;64162;53.508;10.476;2023-12-07T04:54:52;101430.59;;;4.39;73.49
75585;BME280;64162;53.508;10.476;2023-12-07T04:57:18;101422.63;;;4.43;73.96
75585;BME280;64162;53.508;10.476;2023-12-07T04:59:45;101434.84;;;4.13;75.06
75585;BME280;64162;53.508;10.476;2023-12-07T05:02:14;101427.81;;;4.29;74.44
75585;BME280;64162;53.508;10.476;2023-12-07T05:04:41;101427.28;;;3.84;75.30
75585;BME280;64162;53.508;10.476;2023-12-07T05:07:07;101423.19;;;3.82;75.90
75585;BME280;64162;53.508;10.476;2023-12-07T05:09:34;101430.16;;;3.93;75.70
75585;BME280;64162;53.508;10.476;2023-12-07T05:12:01;101429.16;;;4.22;73.84
75585;BME280;64162;53.508;10.476;2023-12-07T05:14:27;101429.09;;;3.97;74.77
75585;BME280;64162;53.508;10.476;2023-12-07T05:16:54;101446.03;;;4.12;75.09
75585;BME280;64162;53.508;10.476;2023-12-07T05:19:23;101447.19;;;3.94;75.14
75585;BME280;64162;53.508;10.476;2023-12-07T05:21:50;101448.38;;;4.42;73.71
75585;BME280;64162;53.508;10.476;2023-12-07T05:24:17;101441.53;;;3.88;75.18
75585;BME280;64162;53.508;10.476;2023-12-07T05:26:44;101453.38;;;4.04;74.64
75585;BME280;64162;53.508;10.476;2023-12-07T05:29:15;101447.56;;;4.14;74.82
75585;BME280;64162;53.508;10.476;2023-12-07T05:31:41;101446.03;;;4.51;73.68
75585;BME280;64162;53.508;10.476;2023-12-07T05:34:08;101450.53;;;4.08;74.80
75585;BME280;64162;53.508;10.476;2023-12-07T05:36:35;101442.19;;;4.31;74.67
75585;BME280;64162;53.508;10.476;2023-12-07T05:39:01;101458.22;;;4.48;73.73
75585;BME280;64162;53.508;10.476;2023-12-07T05:41:28;101455.16;;;4.55;73.55
75585;BME280;64162;53.508;10.476;2023-12-07T05:43:54;101455.53;;;3.97;74.84
75585;BME280;64162;53.508;10.476;2023-12-07T05:46:21;101467.94;;;4.03;75.34
75585;BME280;64162;53.508;10.476;2023-12-07T05:48:48;101475.91;;;3.99;75.11
75585;BME280;64162;53.508;10.476;2023-12-07T05:51:16;101461.41;;;4.12;75.32
75585;BME280;64162;53.508;10.476;2023-12-07T05:53:43;101476.63;;;4.67;73.83
75585;BME280;64162;53.508;10.476;2023-12-07T05:56:10;101471.53;;;4.01;75.02
75585;BME280;64162;53.508;10.476;2023-12-07T05:58:38;101478.28;;;4.28;74.86
75585;BME280;64162;53.508;10.476;2023-12-07T06:01:04;101475.22;;;4.09;75.34
75585;BME280;64162;53.508;10.476;2023-12-07T06:03:31;101463.31;;;4.22;75.39
75585;BME280;64162;53.508;10.476;2023-12-07T06:05:58;101470.50;;;4.30;74.16
75585;BME280;64162;53.508;10.476;2023-12-07T06:08:25;101476.22;;;4.33;73.68
75585;BME280;64162;53.508;10.476;2023-12-07T06:10:52;101467.06;;;4.56;73.48
75585;BME280;64162;53.508;10.476;2023-12-07T06:13:18;101456.00;;;4.81;72.26
75585;BME280;64162;53.508;10.476;2023-12-07T06:15:45;101464.09;;;4.75;72.18
75585;BME280;64162;53.508;10.476;2023-12-07T06:18:11;101455.59;;;4.74;71.98
75585;BME280;64162;53.508;10.476;2023-12-07T06:20:38;101457.84;;;4.79;72.60
75585;BME280;64162;53.508;10.476;2023-12-07T06:23:05;101472.28;;;4.42;73.20
75585;BME280;64162;53.508;10.476;2023-12-07T06:25:33;101458.41;;;4.32;74.35
75585;BME280;64162;53.508;10.476;2023-12-07T06:27:59;101476.06;;;4.49;73.29
75585;BME280;64162;53.508;10.476;2023-12-07T06:30:26;101475.91;;;4.65;73.03
75585;BME280;64162;53.508;10.476;2023-12-07T06:32:52;101467.66;;;4.47;73.30
75585;BME280;64162;53.508;10.476;2023-12-07T06:35:19;101478.72;;;4.35;73.26
75585;BME280;64162;53.508;10.476;2023-12-07T06:37:46;101462.28;;;4.38;73.84
75585;BME280;64162;53.508;10.476;2023-12-07T06:40:13;101462.03;;;4.42;73.57
75585;BME280;64162;53.508;10.476;2023-12-07T06:42:39;101474.56;;;4.59;73.31
75585;BME280;64162;53.508;10.476;2023-12-07T06:45:06;101477.34;;;4.69;73.13
75585;BME280;64162;53.508;10.476;2023-12-07T06:47:37;101480.03;;;4.67;73.05
75585;BME280;64162;53.508;10.476;2023-12-07T06:50:05;101489.56;;;4.26;73.62
75585;BME280;64162;53.508;10.476;2023-12-07T06:52:34;101486.25;;;4.51;73.00
75585;BME280;64162;53.508;10.476;2023-12-07T06:55:01;101486.31;;;4.49;73.50
75585;BME280;64162;53.508;10.476;2023-12-07T06:57:28;101478.59;;;4.89;72.51
75585;BME280;64162;53.508;10.476;2023-12-07T06:59:54;101503.81;;;4.69;72.46
75585;BME280;64162;53.508;10.476;2023-12-07T07:02:21;101494.03;;;4.49;73.36
75585;BME280;64162;53.508;10.476;2023-12-07T07:04:48;101508.66;;;4.35;74.37
75585;BME280;64162;53.508;10.476;2023-12-07T07:07:15;101490.34;;;4.53;73.64
75585;BME280;64162;53.508;10.476;2023-12-07T07:09:42;101504.63;;;4.57;73.45
75585;BME280;64162;53.508;10.476;2023-12-07T07:12:09;101491.81;;;4.57;73.39
75585;BME280;64162;53.508;10.476;2023-12-07T07:14:35;101486.97;;;4.65;72.70
75585;BME280;64162;53.508;10.476;2023-12-07T07:17:02;101503.03;;;4.15;74.30
75585;BME280;64162;53.508;10.476;2023-12-07T07:19:30;101516.25;;;4.09;74.92
75585;BME280;64162;53.508;10.476;2023-12-07T07:21:57;101501.81;;;3.94;75.31
75585;BME280;64162;53.508;10.476;2023-12-07T07:24:24;101520.53;;;4.09;74.86
75585;BME280;64162;53.508;10.476;2023-12-07T07:26:51;101511.94;;;4.76;73.07
75585;BME280;64162;53.508;10.476;2023-12-07T07:29:17;101507.13;;;4.18;74.13
75585;BME280;64162;53.508;10.476;2023-12-07T07:31:44;101515.78;;;4.03;74.96
75585;BME280;64162;53.508;10.476;2023-12-07T07:34:10;101509.25;;;3.84;76.13
75585;BME280;64162;53.508;10.476;2023-12-07T07:36:37;101507.47;;;3.99;75.67
75585;BME280;64162;53.508;10.476;2023-12-07T07:39:04;101512.09;;;4.21;74.82
75585;BME280;64162;53.508;10.476;2023-12-07T07:41:35;101512.75;;;4.10;75.25
75585;BME280;64162;53.508;10.476;2023-12-07T07:44:02;101509.88;;;4.02;75.52
75585;BME280;64162;53.508;10.476;2023-12-07T07:46:29;101508.72;;;3.79;75.78
75585;BME280;64162;53.508;10.476;2023-12-07T07:48:56;101511.44;;;3.91;75.81
75585;BME280;64162;53.508;10.476;2023-12-07T07:51:22;101510.69;;;4.29;74.56
75585;BME280;64162;53.508;10.476;2023-12-07T07:53:49;101508.97;;;5.45;76.61
75585;BME280;64162;53.508;10.476;2023-12-07T07:56:15;101510.78;;;5.69;74.17
75585;BME280;64162;53.508;10.476;2023-12-07T07:58:42;101508.03;;;6.08;73.35
75585;BME280;64162;53.508;10.476;2023-12-07T08:01:09;101504.03;;;4.66;72.88
75585;BME280;64162;53.508;10.476;2023-12-07T08:03:35;101507.59;;;4.64;73.88
75585;BME280;64162;53.508;10.476;2023-12-07T08:06:02;101514.38;;;4.38;73.90
75585;BME280;64162;53.508;10.476;2023-12-07T08:08:29;101517.75;;;4.65;73.40
75585;BME280;64162;53.508;10.476;2023-12-07T08:10:56;101531.44;;;4.39;74.70
75585;BME280;64162;53.508;10.476;2023-12-07T08:13:22;101519.94;;;4.18;74.88
75585;BME280;64162;53.508;10.476;2023-12-07T08:15:49;101536.38;;;4.42;74.37
75585;BME280;64162;53.508;10.476;2023-12-07T08:18:15;101542.03;;;4.20;74.36
75585;BME280;64162;53.508;10.476;2023-12-07T08:20:42;101536.03;;;3.93;75.51
75585;BME280;64162;53.508;10.476;2023-12-07T08:23:09;101556.31;;;4.10;75.62
75585;BME280;64162;53.508;10.476;2023-12-07T08:25:38;101541.03;;;4.09;75.74
75585;BME280;64162;53.508;10.476;2023-12-07T08:28:05;101548.75;;;4.36;75.52
75585;BME280;64162;53.508;10.476;2023-12-07T08:30:32;101558.34;;;4.46;75.15
75585;BME280;64162;53.508;10.476;2023-12-07T08:32:58;101560.06;;;4.19;75.43
75585;BME280;64162;53.508;10.476;2023-12-07T08:35:25;101552.56;;;4.16;75.43
75585;BME280;64162;53.508;10.476;2023-12-07T08:37:52;101542.84;;;4.21;75.30
75585;BME280;64162;53.508;10.476;2023-12-07T08:40:18;101556.00;;;4.29;74.76
75585;BME280;64162;53.508;10.476;2023-12-07T08:42:46;101549.13;;;4.56;73.77
75585;BME280;64162;53.508;10.476;2023-12-07T08:45:14;101563.22;;;4.37;74.82
75585;BME280;64162;53.508;10.476;2023-12-07T08:47:41;101567.06;;;4.29;75.17
75585;BME280;64162;53.508;10.476;2023-12-07T08:50:08;101558.72;;;4.40;74.83
75585;BME280;64162;53.508;10.476;2023-12-07T08:52:35;101561.31;;;4.26;74.73
75585;BME280;64162;53.508;10.476;2023-12-07T08:55:05;101567.97;;;4.02;75.39
75585;BME280;64162;53.508;10.476;2023-12-07T08:57:31;101563.63;;;4.43;75.34
75585;BME280;64162;53.508;10.476;2023-12-07T08:59:58;101572.06;;;4.45;75.02
75585;BME280;64162;53.508;10.476;2023-12-07T09:02:25;101561.13;;;4.29;75.45
75585;BME280;64162;53.508;10.476;2023-12-07T09:04:56;101571.16;;;4.46;75.20
75585;BME280;64162;53.508;10.476;2023-12-07T09:07:23;101571.09;;;4.60;74.57
75585;BME280;64162;53.508;10.476;2023-12-07T09:09:49;101561.13;;;4.29;75.57
75585;BME280;64162;53.508;10.476;2023-12-07T09:12:16;101565.50;;;4.41;75.30
75585;BME280;64162;53.508;10.476;2023-12-07T09:14:45;101571.09;;;4.60;74.55
75585;BME280;64162;53.508;10.476;2023-12-07T09:17:12;101571.88;;;4.48;74.54
75585;BME280;64162;53.508;10.476;2023-12-07T09:19:38;101568.66;;;5.11;72.49
75585;BME280;64162;53.508;10.476;2023-12-07T09:22:05;101581.34;;;4.60;73.82
75585;BME280;64162;53.508;10.476;2023-12-07T09:24:31;101568.81;;;4.56;74.46
75585;BME280;64162;53.508;10.476;2023-12-07T09:26:58;101584.28;;;4.81;73.39
75585;BME280;64162;53.508;10.476;2023-12-07T09:29:25;101581.44;;;4.86;74.06
75585;BME280;64162;53.508;10.476;2023-12-07T09:31:55;101566.88;;;4.99;74.18
75585;BME280;64162;53.508;10.476;2023-12-07T09:34:22;101569.19;;;5.41;71.42
75585;BME280;64162;53.508;10.476;2023-12-07T09:36:49;101572.13;;;5.10;72.85
75585;BME280;64162;53.508;10.476;2023-12-07T09:39:15;101575.53;;;5.10;73.19
75585;BME280;64162;53.508;10.476;2023-12-07T09:41:42;101575.63;;;5.09;73.33
75585;BME280;64162;53.508;10.476;2023-12-07T09:44:10;101572.22;;;4.96;74.08
75585;BME280;64162;53.508;10.476;2023-12-07T09:46:36;101564.97;;;5.53;71.78
75585;BME280;64162;53.508;10.476;2023-12-07T09:49:03;101577.97;;;4.99;73.87
75585;BME280;64162;53.508;10.476;2023-12-07T09:51:30;101586.56;;;4.86;74.06
75585;BME280;64162;53.508;10.476;2023-12-07T09:53:59;101583.84;;;5.39;72.78
75585;BME280;64162;53.508;10.476;2023-12-07T09:56:26;101586.81;;;5.08;74.04
75585;BME280;64162;53.508;10.476;2023-12-07T09:58:53;101572.56;;;5.42;72.58
75585;BME280;64162;53.508;10.476;2023-12-07T10:01:19;101582.72;;;5.43;72.74
75585;BME280;64162;53.508;10.476;2023-12-07T10:03:46;101587.16;;;5.41;72.05
75585;BME280;64162;53.508;10.476;2023-12-07T10:06:14;101590.34;;;5.32;72.33
75585;BME280;64162;53.508;10.476;2023-12-07T10:08:41;101569.56;;;5.10;73.14
75585;BME280;64162;53.508;10.476;2023-12-07T10:11:09;101570.59;;;5.45;71.69
75585;BME280;64162;53.508;10.476;2023-12-07T10:13:37;101568.34;;;5.28;73.22
75585;BME280;64162;53.508;10.476;2023-12-07T10:16:13;101571.44;;;5.08;73.74
75585;BME280;64162;53.508;10.476;2023-12-07T10:18:41;101574.00;;;5.08;73.62
75585;BME280;64162;53.508;10.476;2023-12-07T10:21:09;101567.84;;;5.36;72.99
75585;BME280;64162;53.508;10.476;2023-12-07T10:23:40;101575.09;;;5.04;73.93
75585;BME280;64162;53.508;10.476;2023-12-07T10:26:07;101578.41;;;5.06;73.99
75585;BME280;64162;53.508;10.476;2023-12-07T10:28:35;101571.31;;;5.09;74.32
75585;BME280;64162;53.508;10.476;2023-12-07T10:31:08;101573.47;;;5.03;73.39
75585;BME280;64162;53.508;10.476;2023-12-07T10:33:35;101578.59;;;5.15;73.53
75585;BME280;64162;53.508;10.476;2023-12-07T10:36:03;101580.88;;;5.20;73.27
75585;BME280;64162;53.508;10.476;2023-12-07T10:38:29;101577.38;;;5.21;73.13
75585;BME280;64162;53.508;10.476;2023-12-07T10:41:05;101577.13;;;4.86;74.37
75585;BME280;64162;53.508;10.476;2023-12-07T10:43:37;101579.22;;;5.44;72.55
75585;BME280;64162;53.508;10.476;2023-12-07T10:46:05;101578.63;;;5.66;72.47
75585;BME280;64162;53.508;10.476;2023-12-07T10:48:32;101576.72;;;4.92;73.32
75585;BME280;64162;53.508;10.476;2023-12-07T10:51:00;101580.59;;;4.72;74.53
75585;BME280;64162;53.508;10.476;2023-12-07T10:53:27;101563.19;;;4.63;75.11
75585;BME280;64162;53.508;10.476;2023-12-07T10:56:00;101575.72;;;5.20;74.46
75585;BME280;64162;53.508;10.476;2023-12-07T10:58:27;101584.72;;;4.34;76.41
75585;BME280;64162;53.508;10.476;2023-12-07T11:00:55;101586.56;;;4.86;75.55
75585;BME280;64162;53.508;10.476;2023-12-07T11:03:22;101583.59;;;4.52;75.85
75585;BME280;64162;53.508;10.476;2023-12-07T11:05:50;101587.88;;;5.31;74.15
75585;BME280;64162;53.508;10.476;2023-12-07T11:08:43;101593.94;;;4.78;74.67
75585;BME280;64162;53.508;10.476;2023-12-07T11:13:57;101575.31;;;4.61;75.70
75585;BME280;64162;53.508;10.476;2023-12-07T11:16:32;101571.94;;;4.73;75.63
75585;BME280;64162;53.508;10.476;2023-12-07T11:18:59;101574.25;;;4.91;75.20
75585;BME280;64162;53.508;10.476;2023-12-07T11:21:26;101568.44;;;4.62;75.81
75585;BME280;64162;53.508;10.476;2023-12-07T11:23:54;101571.94;;;5.13;74.47
75585;BME280;64162;53.508;10.476;2023-12-07T11:26:23;101553.13;;;5.00;74.08
75585;BME280;64162;53.508;10.476;2023-12-07T11:28:51;101564.25;;;5.13;73.95
75585;BME280;64162;53.508;10.476;2023-12-07T11:31:17;101558.81;;;5.43;73.40
75585;BME280;64162;53.508;10.476;2023-12-07T11:33:46;101572.03;;;5.11;74.26
75585;BME280;64162;53.508;10.476;2023-12-07T11:36:14;101550.88;;;5.21;74.13
75585;BME280;64162;53.508;10.476;2023-12-07T11:41:29;101553.56;;;5.19;73.80
75585;BME280;64162;53.508;10.476;2023-12-07T11:43:58;101560.50;;;4.92;74.48
75585;BME280;64162;53.508;10.476;2023-12-07T11:46:25;101570.81;;;5.17;74.20
75585;BME280;64162;53.508;10.476;2023-12-07T11:48:51;101558.91;;;5.16;74.36
75585;BME280;64162;53.508;10.476;2023-12-07T11:51:18;101557.03;;;5.05;74.63
75585;BME280;64162;53.508;10.476;2023-12-07T11:53:45;101570.38;;;5.10;74.05
75585;BME280;64162;53.508;10.476;2023-12-07T11:56:11;101555.41;;;5.30;73.93
75585;BME280;64162;53.508;10.476;2023-12-07T11:58:39;101568.94;;;5.19;74.06
75585;BME280;64162;53.508;10.476;2023-12-07T12:01:06;101552.31;;;4.99;74.47
75585;BME280;64162;53.508;10.476;2023-12-07T12:03:33;101557.88;;;5.31;73.32
75585;BME280;64162;53.508;10.476;2023-12-07T12:06:03;101553.69;;;4.65;75.39
75585;BME280;64162;53.508;10.476;2023-12-07T12:08:30;101545.66;;;4.57;75.85
75585;BME280;64162;53.508;10.476;2023-12-07T12:10:57;101560.59;;;4.78;74.68
75585;BME280;64162;53.508;10.476;2023-12-07T12:13:33;101543.19;;;5.08;74.45
75585;BME280;64162;53.508;10.476;2023-12-07T12:16:00;101553.16;;;5.25;74.41
75585;BME280;64162;53.508;10.476;2023-12-07T12:18:28;101559.00;;;5.02;74.60
75585;BME280;64162;53.508;10.476;2023-12-07T12:20:55;101559.16;;;4.86;74.71
75585;BME280;64162;53.508;10.476;2023-12-07T12:23:21;101549.63;;;5.13;74.09
75585;BME280;64162;53.508;10.476;2023-12-07T12:25:48;101536.94;;;5.12;74.22
75585;BME280;64162;53.508;10.476;2023-12-07T12:28:16;101546.88;;;5.16;73.98
75585;BME280;64162;53.508;10.476;2023-12-07T12:30:45;101532.38;;;5.66;73.10
75585;BME280;64162;53.508;10.476;2023-12-07T12:33:12;101537.00;;;5.48;72.64
75585;BME280;64162;53.508;10.476;2023-12-07T12:35:40;101544.09;;;5.57;72.33
75585;BME280;64162;53.508;10.476;2023-12-07T12:38:10;101537.84;;;5.11;74.10
75585;BME280;64162;53.508;10.476;2023-12-07T12:40:43;101544.94;;;5.45;73.23
75585;BME280;64162;53.508;10.476;2023-12-07T12:43:09;101530.78;;;5.27;73.80
75585;BME280;64162;53.508;10.476;2023-12-07T12:45:37;101538.25;;;5.43;73.73
75585;BME280;64162;53.508;10.476;2023-12-07T12:48:04;101535.78;;;5.29;73.66
75585;BME280;64162;53.508;10.476;2023-12-07T12:50:37;101543.19;;;5.08;74.49
75585;BME280;64162;53.508;10.476;2023-12-07T12:53:05;101527.06;;;5.31;73.82
75585;BME280;64162;53.508;10.476;2023-12-07T12:55:33;101531.53;;;5.66;72.32
75585;BME280;64162;53.508;10.476;2023-12-07T12:58:01;101532.69;;;4.98;74.82